createdAt,value
2022-12-15T00:00:00.240Z,54
2022-12-15T00:04:59.833Z,53
2022-12-15T00:10:00.271Z,55
2022-12-15T00:15:00.345Z,55
2022-12-15T00:19:59.844Z,55
2022-12-15T00:25:00.071Z,54
2022-12-15T00:29:59.772Z,55
2022-12-15T00:35:00.076Z,55
2022-12-15T00:40:00.420Z,55
2022-12-15T00:44:59.966Z,55
2022-12-15T00:50:00.143Z,54
2022-12-15T00:54:59.920Z,54
2022-12-15T01:00:00.242Z,54
2022-12-15T01:05:00.118Z,54
2022-12-15T01:09:59.779Z,53
2022-12-15T01:14:59.882Z,53
2022-12-15T01:19:59.934Z,52
2022-12-15T01:24:59.915Z,52
2022-12-15T01:29:59.721Z,51
2022-12-15T01:34:59.854Z,51
2022-12-15T01:40:00.038Z,50
2022-12-15T01:44:59.690Z,50
2022-12-15T01:49:59.697Z,50
2022-12-15T01:54:59.718Z,51
2022-12-15T01:59:59.806Z,54
2022-12-15T02:04:59.825Z,53
2022-12-15T02:10:00.072Z,54
2022-12-15T02:15:00.028Z,54
2022-12-15T02:20:12.660Z,54
2022-12-15T02:24:59.703Z,55
2022-12-15T02:30:23.295Z,55
2022-12-15T02:34:59.652Z,54
2022-12-15T02:39:59.768Z,54
2022-12-15T02:44:59.929Z,56
2022-12-15T02:49:59.996Z,57
2022-12-15T02:55:07.671Z,57
2022-12-15T02:59:59.966Z,57
2022-12-15T03:04:59.646Z,56
2022-12-15T03:10:01.085Z,55
2022-12-15T03:14:59.976Z,56
2022-12-15T03:19:59.849Z,54
2022-12-15T03:24:59.968Z,54
2022-12-15T03:29:59.641Z,54
2022-12-15T03:35:00.132Z,55
2022-12-15T03:39:59.764Z,54
2022-12-15T03:44:59.871Z,54
2022-12-15T03:49:59.549Z,54
2022-12-15T03:54:59.701Z,54
2022-12-15T03:59:59.812Z,53
2022-12-15T04:04:59.626Z,53
2022-12-15T04:09:59.782Z,53
2022-12-15T04:14:59.690Z,51
2022-12-15T04:19:59.715Z,52
2022-12-15T04:24:59.811Z,52
2022-12-15T04:30:00.005Z,51
2022-12-15T04:34:59.830Z,52
2022-12-15T04:39:59.981Z,51
2022-12-15T04:44:59.899Z,51
2022-12-15T04:49:59.841Z,52
2022-12-15T04:54:59.813Z,53
2022-12-15T04:59:59.723Z,53
2022-12-15T05:04:59.626Z,53
2022-12-15T05:10:03.108Z,53
2022-12-15T05:14:59.836Z,52
2022-12-15T05:19:59.712Z,52
2022-12-15T05:25:00.014Z,51
2022-12-15T05:29:59.774Z,52
2022-12-15T05:34:59.601Z,53
2022-12-15T05:39:59.687Z,53
2022-12-15T05:44:59.530Z,53
2022-12-15T05:49:59.553Z,53
2022-12-15T05:54:59.617Z,53
2022-12-15T05:59:59.843Z,52
2022-12-15T06:04:59.962Z,52
2022-12-15T06:09:59.472Z,52
2022-12-15T06:14:59.684Z,52
2022-12-15T06:19:59.922Z,53
2022-12-15T06:24:59.837Z,53
2022-12-15T06:29:59.614Z,53
2022-12-15T06:34:59.734Z,53
2022-12-15T06:39:59.692Z,53
2022-12-15T06:44:59.481Z,55
2022-12-15T06:49:59.563Z,55
2022-12-15T06:54:59.487Z,54
2022-12-15T06:59:59.583Z,55
2022-12-15T07:04:59.781Z,54
2022-12-15T07:09:59.709Z,56
2022-12-15T07:14:59.555Z,56
2022-12-15T07:19:59.642Z,55
2022-12-15T07:24:59.645Z,56
2022-12-15T07:29:59.664Z,58
2022-12-15T07:34:59.488Z,58
2022-12-15T07:39:59.730Z,60
2022-12-15T07:44:59.397Z,58
2022-12-15T07:49:59.576Z,58
2022-12-15T07:54:59.588Z,59
2022-12-15T07:59:59.635Z,60
2022-12-15T08:04:59.598Z,59
2022-12-15T08:09:59.463Z,59
2022-12-15T08:14:59.440Z,59
2022-12-15T08:20:01.427Z,58
2022-12-15T08:24:59.692Z,59
2022-12-15T08:29:59.771Z,59
2022-12-15T08:34:59.558Z,60
2022-12-15T08:39:59.409Z,62
2022-12-15T08:44:59.682Z,61
2022-12-15T08:49:59.687Z,60
2022-12-15T08:54:59.673Z,60
2022-12-15T08:59:59.306Z,59
2022-12-15T09:04:59.396Z,60
2022-12-15T09:09:59.514Z,60
2022-12-15T09:14:59.792Z,62
2022-12-15T09:19:59.598Z,63
2022-12-15T09:24:59.403Z,64
2022-12-15T09:29:59.465Z,64
2022-12-15T09:34:59.311Z,63
2022-12-15T09:39:59.344Z,63
2022-12-15T09:44:59.455Z,63
2022-12-15T09:49:59.588Z,63
2022-12-15T09:54:59.588Z,62
2022-12-15T10:00:07.444Z,62
2022-12-15T10:05:03.761Z,63
2022-12-15T10:09:59.526Z,62
2022-12-15T10:14:59.298Z,61
2022-12-15T10:19:59.541Z,62
2022-12-15T10:25:10.100Z,64
2022-12-15T10:29:59.317Z,65
2022-12-15T10:34:59.350Z,65
2022-12-15T10:39:59.597Z,66
2022-12-15T10:44:59.470Z,67
2022-12-15T10:49:59.237Z,68
2022-12-15T10:54:59.383Z,67
2022-12-15T10:59:59.455Z,68
2022-12-15T11:05:00.351Z,70
2022-12-15T11:09:59.292Z,70
2022-12-15T11:14:59.530Z,71
2022-12-15T11:20:02.682Z,71
2022-12-15T11:24:59.175Z,72
2022-12-15T11:29:59.363Z,73
2022-12-15T11:34:59.634Z,73
2022-12-15T11:39:59.307Z,72
2022-12-15T11:45:02.027Z,72
2022-12-15T11:49:59.321Z,72
2022-12-15T11:55:04.851Z,72
2022-12-15T11:59:59.378Z,73
2022-12-15T12:04:59.328Z,74
2022-12-15T12:09:59.443Z,74
2022-12-15T12:14:59.103Z,75
2022-12-15T12:19:59.210Z,76
2022-12-15T12:24:59.398Z,77
2022-12-15T12:29:59.223Z,75
2022-12-15T12:35:31.676Z,75
2022-12-15T12:39:59.451Z,75
2022-12-15T12:44:59.278Z,76
2022-12-15T12:50:01.805Z,74
2022-12-15T12:54:59.329Z,74
2022-12-15T12:59:59.402Z,73
2022-12-15T13:04:59.320Z,72
2022-12-15T13:09:59.088Z,72
2022-12-15T13:14:59.144Z,74
2022-12-15T13:19:59.320Z,73
2022-12-15T13:24:59.696Z,73
2022-12-15T13:30:00.669Z,74
2022-12-15T13:34:59.084Z,73
2022-12-15T13:39:59.232Z,74
2022-12-15T13:44:59.351Z,74
2022-12-15T13:55:00.293Z,75
2022-12-15T14:00:01.103Z,76
2022-12-15T14:05:11.209Z,75
2022-12-15T14:09:59.723Z,75
2022-12-15T14:14:59.157Z,73
2022-12-15T14:20:09.603Z,74
2022-12-15T14:25:00.725Z,72
2022-12-15T14:30:00.808Z,72
2022-12-15T14:34:59.192Z,72
2022-12-15T14:39:59.679Z,72
2022-12-15T14:44:59.365Z,73
2022-12-15T14:49:59.239Z,72
2022-12-15T14:55:00.015Z,72
2022-12-15T14:59:59.183Z,72
2022-12-15T15:03:05.643Z,74
2022-12-15T15:04:59.135Z,73
2022-12-15T15:09:59.620Z,74
2022-12-15T15:14:59.095Z,73
2022-12-15T15:20:00.961Z,74
2022-12-15T15:24:59.289Z,75
2022-12-15T15:29:59.289Z,76
2022-12-15T15:34:59.194Z,75
2022-12-15T15:39:59.487Z,75
2022-12-15T15:44:58.951Z,77
2022-12-15T15:49:59.108Z,77
2022-12-15T15:54:58.933Z,79
2022-12-15T15:59:59.093Z,78
2022-12-15T16:04:59.038Z,79
2022-12-15T16:09:59.290Z,80
2022-12-15T16:14:59.102Z,80
2022-12-15T16:19:58.974Z,80
2022-12-15T16:24:59.059Z,81
2022-12-15T16:29:58.888Z,82
2022-12-15T16:34:59.155Z,82
2022-12-15T16:39:58.973Z,84
2022-12-15T16:44:58.952Z,84
2022-12-15T16:49:58.888Z,87
2022-12-15T16:54:59.423Z,88
2022-12-15T16:59:59.008Z,89
2022-12-15T17:04:59.212Z,91
2022-12-15T17:09:58.905Z,91
2022-12-15T17:14:59.149Z,92
2022-12-15T17:20:27.951Z,94
2022-12-15T17:24:59.199Z,93
2022-12-15T17:29:59.154Z,95
2022-12-15T17:34:59.189Z,96
2022-12-15T17:39:59.055Z,96
2022-12-15T17:44:58.971Z,96
2022-12-15T17:49:58.953Z,97
2022-12-15T17:54:59.256Z,97
2022-12-15T17:59:59.245Z,96
2022-12-15T18:04:58.802Z,97
2022-12-15T18:09:59.025Z,98
2022-12-15T18:14:58.806Z,100
2022-12-15T18:19:58.992Z,100
2022-12-15T18:24:59.019Z,99
2022-12-15T18:29:58.962Z,99
2022-12-15T18:35:00.401Z,99
2022-12-15T18:40:04.648Z,99
2022-12-15T18:45:00.330Z,100
2022-12-15T18:50:00.446Z,101
2022-12-15T18:55:00.561Z,102
2022-12-15T19:00:00.370Z,102
2022-12-15T19:05:00.423Z,102
2022-12-15T19:10:00.463Z,102
2022-12-15T19:15:00.644Z,103
2022-12-15T19:20:00.352Z,104
2022-12-15T19:25:01.397Z,104
2022-12-15T19:30:00.517Z,105
2022-12-15T19:35:00.188Z,106
2022-12-15T19:40:00.447Z,105
2022-12-15T19:45:00.389Z,107
2022-12-15T19:50:00.723Z,107
2022-12-15T19:55:00.536Z,108
2022-12-15T20:00:00.321Z,109
2022-12-15T20:05:00.148Z,110
2022-12-15T20:10:00.485Z,110
2022-12-15T20:15:00.444Z,110
2022-12-15T20:20:00.431Z,111
2022-12-15T20:25:00.967Z,111
2022-12-15T20:30:00.442Z,111
2022-12-15T20:35:00.551Z,110
2022-12-15T20:40:00.133Z,110
2022-12-15T20:45:00.305Z,111
2022-12-15T20:50:00.178Z,111
2022-12-15T20:55:00.409Z,111
2022-12-15T21:00:00.607Z,111
2022-12-15T21:05:00.307Z,112
2022-12-15T21:10:00.595Z,112
2022-12-15T21:15:00.420Z,110
2022-12-15T21:20:00.127Z,110
2022-12-15T21:25:00.301Z,110
2022-12-15T21:30:00.427Z,110
2022-12-15T21:35:00.095Z,110
2022-12-15T21:40:00.441Z,109
2022-12-15T21:45:00.049Z,110
2022-12-15T21:50:00.180Z,109
2022-12-15T21:55:00.364Z,110
2022-12-15T22:00:00.374Z,110
2022-12-15T22:05:00.420Z,109
2022-12-15T22:10:00.337Z,109
2022-12-15T22:15:00.010Z,108
2022-12-15T22:20:00.094Z,108
2022-12-15T22:25:00.332Z,108
2022-12-15T22:30:00.312Z,108
2022-12-15T22:35:00.308Z,108
2022-12-15T22:40:00.338Z,108
2022-12-15T22:45:00.180Z,107
2022-12-15T22:50:00.291Z,106
2022-12-15T22:55:00.596Z,106
2022-12-15T23:00:00.391Z,106
2022-12-15T23:05:00.589Z,106
2022-12-15T23:10:00.509Z,107
2022-12-15T23:15:00.080Z,105
2022-12-15T23:20:00.372Z,105
2022-12-15T23:25:00.299Z,104
2022-12-15T23:30:00.348Z,104
2022-12-15T23:35:00.294Z,104
2022-12-15T23:40:00.026Z,102
2022-12-15T23:45:00.170Z,102
2022-12-15T23:50:00.316Z,101
2022-12-15T23:55:00.083Z,102
